Time;durP1;ratioP1;P1;durP2;ratioP2;P2;SDS_P1;SDS_P2;PMS_P1;PMS_P2;Temp;Humidity;BMP_temperature;BMP_pressure;BME280_temperature;BME280_humidity;BME280_pressure;Samples;Min_cycle;Max_cycle;Signal;HPM_P1;HPM_P2
2023/10/13 00:02:02;;;;;;;11.13;7.10;;;24.30;51.60;;;;;;4920032;29;20424;-51
2023/10/13 00:04:29;;;;;;;8.90;6.47;;;24.30;51.50;;;;;;4914093;29;20564;-49
2023/10/13 00:06:59;;;;;;;9.43;6.50;;;24.30;51.20;;;;;;4920786;29;20486;-52
2023/10/13 00:09:29;;;;;;;7.20;6.50;;;24.30;50.50;;;;;;4915449;29;20552;-51
2023/10/13 00:11:56;;;;;;;9.20;6.10;;;24.30;50.40;;;;;;4923239;29;20476;-49
2023/10/13 00:14:22;;;;;;;7.50;5.80;;;24.40;49.80;;;;;;4917852;29;21157;-48
2023/10/13 00:19:46;;;;;;;7.67;6.90;;;24.40;49.50;;;;;;4921305;29;20433;-48
2023/10/13 00:22:15;;;;;;;14.73;5.53;;;24.50;49.10;;;;;;4916585;29;20421;-50
2023/10/13 00:24:43;;;;;;;12.23;7.23;;;24.50;48.90;;;;;;4919784;29;20431;-54
2023/10/13 00:30:17;;;;;;;9.97;5.47;;;24.50;48.70;;;;;;4907537;29;20469;-52
2023/10/13 00:32:44;;;;;;;8.70;6.60;;;24.60;48.90;;;;;;4907879;29;20496;-50
2023/10/13 00:35:13;;;;;;;7.13;6.07;;;24.60;48.70;;;;;;4907530;29;20576;-48
2023/10/13 00:37:45;;;;;;;8.53;6.20;;;24.60;48.60;;;;;;4905484;29;20448;-50
2023/10/13 00:40:40;;;;;;;9.23;6.20;;;24.60;48.80;;;;;;4908845;29;20501;-52
2023/10/13 00:45:55;;;;;;;7.30;6.60;;;24.60;49.20;;;;;;4907743;29;20472;-50
2023/10/13 00:48:29;;;;;;;7.77;6.17;;;24.70;48.90;;;;;;4902654;29;20508;-50
2023/10/13 00:50:56;;;;;;;8.37;5.80;;;24.60;48.70;;;;;;4909553;29;20428;-51
2023/10/13 00:53:25;;;;;;;9.80;6.20;;;24.60;48.60;;;;;;4909467;29;20493;-50
2023/10/13 00:55:51;;;;;;;6.97;6.07;;;24.60;48.00;;;;;;4902815;29;21045;-49
2023/10/13 00:58:21;;;;;;;8.77;5.60;;;24.60;47.90;;;;;;4904637;29;20461;-49
2023/10/13 01:00:56;;;;;;;9.87;5.33;;;24.60;47.90;;;;;;4905827;29;20449;-51
2023/10/13 01:03:26;;;;;;;15.03;5.40;;;24.70;47.80;;;;;;4906034;29;20483;-50
2023/10/13 01:05:54;;;;;;;6.90;5.20;;;24.70;47.50;;;;;;4908997;29;20468;-49
2023/10/13 01:08:36;;;;;;;7.80;4.97;;;24.70;47.40;;;;;;4912112;29;20457;-51
2023/10/13 01:11:06;;;;;;;12.00;5.77;;;24.70;46.40;;;;;;4911189;29;20969;-49
2023/10/13 01:13:35;;;;;;;6.87;5.43;;;24.70;46.20;;;;;;4917618;29;21241;-49
2023/10/13 01:16:01;;;;;;;8.00;5.10;;;24.70;46.30;;;;;;4911007;29;20552;-48
2023/10/13 01:18:28;;;;;;;7.47;5.00;;;24.60;45.80;;;;;;4917673;29;20906;-50
2023/10/13 01:20:58;;;;;;;7.97;5.10;;;24.50;45.70;;;;;;4913831;29;20208;-49
2023/10/13 01:23:28;;;;;;;6.37;5.50;;;24.40;45.50;;;;;;4915598;29;20809;-51
2023/10/13 01:25:54;;;;;;;17.77;6.57;;;24.40;45.70;;;;;;4909537;29;20456;-52
2023/10/13 01:28:21;;;;;;;11.23;5.00;;;24.40;46.00;;;;;;4910924;29;20461;-51
2023/10/13 01:30:50;;;;;;;7.77;4.90;;;24.30;45.50;;;;;;4909324;29;20446;-48
2023/10/13 01:33:28;;;;;;;5.77;4.77;;;24.30;45.60;;;;;;4912767;29;20479;-49
2023/10/13 01:35:58;;;;;;;6.37;4.33;;;24.30;45.80;;;;;;4913577;29;20449;-50
2023/10/13 01:38:28;;;;;;;10.63;4.70;;;24.30;46.00;;;;;;4920760;29;20495;-49
2023/10/13 01:40:56;;;;;;;8.60;5.43;;;24.20;45.50;;;;;;4907467;29;20441;-49
2023/10/13 01:43:22;;;;;;;7.57;5.40;;;24.20;45.70;;;;;;4905466;29;20449;-49
2023/10/13 01:45:49;;;;;;;9.70;5.07;;;24.10;45.40;;;;;;4920933;29;20444;-51
2023/10/13 01:48:16;;;;;;;8.60;4.57;;;24.20;45.80;;;;;;4919166;29;20471;-52
2023/10/13 01:50:47;;;;;;;7.30;5.00;;;24.20;45.70;;;;;;4922985;29;20845;-49
2023/10/13 01:53:14;;;;;;;8.33;4.60;;;24.20;45.50;;;;;;4917117;29;20489;-49
2023/10/13 01:55:43;;;;;;;8.30;4.83;;;24.10;45.00;;;;;;4921843;29;20880;-52
2023/10/13 01:58:14;;;;;;;8.07;5.17;;;24.10;45.70;;;;;;4922690;29;20475;-50
2023/10/13 02:00:44;;;;;;;5.63;4.77;;;24.10;46.00;;;;;;4925581;29;21081;-50
2023/10/13 02:03:16;;;;;;;10.83;5.10;;;24.10;45.60;;;;;;4914472;29;20545;-49
2023/10/13 02:05:47;;;;;;;6.40;5.37;;;24.10;45.30;;;;;;4915972;29;20445;-50
2023/10/13 02:08:23;;;;;;;7.20;4.50;;;24.10;45.20;;;;;;4922605;29;20811;-51
2023/10/13 02:10:52;;;;;;;9.23;5.67;;;24.10;45.20;;;;;;4921735;29;20439;-51
2023/10/13 02:13:19;;;;;;;5.37;4.87;;;24.10;45.20;;;;;;4919029;29;20477;-51
2023/10/13 02:15:51;;;;;;;7.60;5.73;;;24.00;45.50;;;;;;4917584;29;20448;-49
2023/10/13 02:18:25;;;;;;;5.60;4.77;;;24.00;45.70;;;;;;4919423;29;20495;-52
2023/10/13 02:20:55;;;;;;;7.33;4.77;;;24.00;45.60;;;;;;4911210;29;20534;-49
2023/10/13 02:23:30;;;;;;;5.30;4.47;;;23.90;45.60;;;;;;4916124;29;20976;-50
2023/10/13 02:26:11;;;;;;;6.83;4.83;;;23.90;45.60;;;;;;4918472;29;20871;-49
2023/10/13 02:28:37;;;;;;;7.00;5.50;;;23.90;45.50;;;;;;4915137;29;20534;-51
2023/10/13 02:31:03;;;;;;;7.33;5.23;;;23.90;45.30;;;;;;4917096;29;20461;-49
2023/10/13 02:33:30;;;;;;;8.53;5.50;;;23.90;45.20;;;;;;4911467;29;20236;-50
2023/10/13 02:36:03;;;;;;;6.60;4.67;;;23.90;45.30;;;;;;4908338;29;20502;-49
2023/10/13 02:41:07;;;;;;;7.53;5.00;;;23.80;45.40;;;;;;4910916;29;20437;-47
2023/10/13 02:43:34;;;;;;;8.50;5.10;;;23.70;45.80;;;;;;4914010;29;20516;-50
2023/10/13 02:46:00;;;;;;;7.30;5.13;;;23.70;45.70;;;;;;4911336;29;20552;-49
2023/10/13 02:48:30;;;;;;;10.10;5.13;;;23.70;45.70;;;;;;4914148;29;20469;-50
2023/10/13 02:51:01;;;;;;;13.80;5.03;;;23.70;45.70;;;;;;4910585;29;20544;-52
2023/10/13 02:53:28;;;;;;;9.93;5.37;;;23.60;45.90;;;;;;4913369;29;20580;-50
2023/10/13 02:56:06;;;;;;;7.70;4.87;;;23.60;46.10;;;;;;4909514;29;20445;-52
2023/10/13 02:58:38;;;;;;;8.20;5.17;;;23.70;46.00;;;;;;4906505;29;20484;-52
2023/10/13 03:01:16;;;;;;;7.70;4.60;;;23.60;46.00;;;;;;4908822;29;20441;-53
2023/10/13 03:03:54;;;;;;;6.33;5.10;;;23.60;45.80;;;;;;4913373;29;20442;-48
2023/10/13 03:06:23;;;;;;;9.67;4.70;;;23.50;45.60;;;;;;4912820;29;20489;-52
2023/10/13 03:08:49;;;;;;;6.00;4.53;;;23.40;45.70;;;;;;4919642;29;20887;-50
2023/10/13 03:11:16;;;;;;;6.23;5.00;;;23.40;45.90;;;;;;4909081;29;20449;-49
2023/10/13 03:13:44;;;;;;;7.77;4.70;;;23.40;45.70;;;;;;4909370;29;20632;-50
2023/10/13 03:16:16;;;;;;;7.93;5.07;;;23.40;45.60;;;;;;4913852;29;20521;-50
2023/10/13 03:18:53;;;;;;;6.70;4.53;;;23.30;45.40;;;;;;4910674;29;20520;-48
2023/10/13 03:21:28;;;;;;;11.23;4.70;;;23.30;45.60;;;;;;4911821;29;20460;-49
2023/10/13 03:23:56;;;;;;;7.17;4.70;;;23.30;45.50;;;;;;4906856;29;20882;-49
2023/10/13 03:26:22;;;;;;;7.60;4.83;;;23.40;45.60;;;;;;4912860;29;20453;-47
2023/10/13 03:28:55;;;;;;;7.13;5.23;;;23.40;45.60;;;;;;4913036;29;20509;-52
2023/10/13 03:31:27;;;;;;;7.37;4.80;;;23.50;45.50;;;;;;4908662;29;20601;-50
2023/10/13 03:33:58;;;;;;;5.73;5.00;;;23.50;45.20;;;;;;4910815;29;20472;-52
2023/10/13 03:39:10;;;;;;;5.10;4.60;;;23.50;45.20;;;;;;4910954;29;20970;-48
2023/10/13 03:41:38;;;;;;;6.63;4.47;;;23.50;45.00;;;;;;4909271;29;20948;-50
2023/10/13 03:44:17;;;;;;;9.67;4.37;;;23.50;45.50;;;;;;4910888;29;20491;-52
2023/10/13 03:46:45;;;;;;;7.80;4.80;;;23.50;45.10;;;;;;4917198;29;20569;-46
2023/10/13 03:49:12;;;;;;;6.20;4.90;;;23.50;44.60;;;;;;4916662;29;20559;-50
2023/10/13 03:51:41;;;;;;;7.77;5.07;;;23.40;44.50;;;;;;4912559;29;20481;-50
2023/10/13 03:54:09;;;;;;;5.63;5.10;;;23.40;44.60;;;;;;4920367;29;20547;-48
2023/10/13 03:59:05;;;;;;;5.50;4.40;;;23.10;45.20;;;;;;4922652;29;20536;-50
2023/10/13 04:01:31;;;;;;;7.40;5.13;;;23.00;45.30;;;;;;4917089;29;20437;-46
2023/10/13 04:04:04;;;;;;;7.17;5.27;;;22.90;45.50;;;;;;4917633;29;20532;-48
2023/10/13 04:17:22;;;;;;;10.20;4.57;;;22.60;46.00;;;;;;4918413;29;20444;-49
2023/10/13 04:33:35;;;;;;;9.80;5.67;;;22.10;47.70;;;;;;4905709;29;20524;-49
2023/10/13 04:36:14;;;;;;;7.33;4.83;;;22.10;48.00;;;;;;4905534;29;21186;-47
2023/10/13 04:38:56;;;;;;;10.50;4.97;;;22.00;48.10;;;;;;4904297;29;21091;-50
2023/10/13 04:41:31;;;;;;;8.93;4.83;;;21.90;48.40;;;;;;4908582;29;21300;-49
2023/10/13 04:44:04;;;;;;;6.57;5.20;;;21.90;48.60;;;;;;4906041;29;20976;-50
2023/10/13 04:46:54;;;;;;;7.47;5.70;;;21.90;48.60;;;;;;4910235;29;20459;-47
2023/10/13 04:49:29;;;;;;;7.80;4.90;;;21.90;48.70;;;;;;4906292;29;20449;-50
2023/10/13 04:51:59;;;;;;;12.00;5.60;;;21.70;49.20;;;;;;4910674;29;20491;-53
2023/10/13 04:57:23;;;;;;;8.63;5.90;;;21.60;49.70;;;;;;4908683;29;20496;-51
2023/10/13 05:52:07;;;;;;;7.93;6.00;;;20.60;53.20;;;;;;4910002;29;20444;-49
2023/10/13 06:29:58;;;;;;;9.73;5.27;;;21.10;52.60;;;;;;4905448;29;20517;-50
2023/10/13 06:32:27;;;;;;;6.40;5.80;;;21.20;52.50;;;;;;4917868;29;20481;-50
2023/10/13 06:35:18;;;;;;;6.30;5.70;;;21.30;52.30;;;;;;4922603;29;20924;-50
2023/10/13 06:37:45;;;;;;;8.20;5.60;;;21.30;52.10;;;;;;4916378;29;20853;-51
2023/10/13 06:40:33;;;;;;;6.73;6.07;;;21.40;52.00;;;;;;4914458;29;20540;-52
2023/10/13 06:43:17;;;;;;;9.50;6.63;;;21.40;52.00;;;;;;4914630;29;20811;-48
2023/10/13 06:45:50;;;;;;;6.63;5.80;;;21.30;52.20;;;;;;4923585;29;20451;-51
2023/10/13 06:48:18;;;;;;;8.87;6.43;;;21.40;52.20;;;;;;4921129;29;20536;-52
2023/10/13 06:50:55;;;;;;;10.00;6.17;;;21.70;52.00;;;;;;4921865;29;20476;-47
2023/10/13 06:53:21;;;;;;;7.13;5.53;;;21.90;51.60;;;;;;4911597;29;20472;-50
2023/10/13 06:55:49;;;;;;;8.43;6.07;;;22.10;51.10;;;;;;4914639;29;20433;-53
2023/10/13 06:58:14;;;;;;;6.57;5.13;;;22.10;50.60;;;;;;4913932;29;20292;-49
2023/10/13 07:00:40;;;;;;;7.43;6.20;;;22.10;50.50;;;;;;4924684;29;20541;-49
2023/10/13 07:03:06;;;;;;;7.10;5.87;;;22.10;50.30;;;;;;4918159;29;20178;-52
2023/10/13 07:05:43;;;;;;;7.30;5.13;;;22.20;50.00;;;;;;4914450;29;20216;-50
2023/10/13 07:08:14;;;;;;;5.27;4.77;;;22.30;49.80;;;;;;4914213;29;20205;-53
2023/10/13 07:11:13;;;;;;;8.13;5.47;;;22.60;49.30;;;;;;4918461;29;20444;-50
2023/10/13 07:13:47;;;;;;;6.90;5.50;;;22.70;49.00;;;;;;4919867;29;20918;-48
2023/10/13 07:16:12;;;;;;;6.30;5.53;;;23.00;48.60;;;;;;4913651;29;20456;-50
2023/10/13 07:18:49;;;;;;;9.50;5.87;;;23.10;48.50;;;;;;4914237;29;20850;-50
2023/10/13 07:21:30;;;;;;;11.33;6.07;;;23.30;48.20;;;;;;4913404;29;20200;-52
2023/10/13 07:24:08;;;;;;;6.60;5.50;;;23.40;47.60;;;;;;4918113;29;20510;-48
2023/10/13 07:26:42;;;;;;;5.67;4.60;;;23.50;47.30;;;;;;4922371;29;21002;-51
2023/10/13 07:29:09;;;;;;;7.53;5.70;;;23.50;47.30;;;;;;4916932;29;20894;-51
2023/10/13 07:31:34;;;;;;;15.83;6.23;;;23.50;47.40;;;;;;4919278;29;20440;-53
2023/10/13 07:34:10;;;;;;;12.67;6.63;;;23.70;47.90;;;;;;4924204;29;20855;-51
2023/10/13 07:36:39;;;;;;;30.37;8.23;;;23.80;47.90;;;;;;4912002;29;20213;-52
2023/10/13 07:39:40;;;;;;;13.43;6.73;;;23.90;47.80;;;;;;4913964;29;21023;-50
2023/10/13 07:42:05;;;;;;;9.13;5.30;;;23.80;47.60;;;;;;4912386;29;20426;-50
2023/10/13 07:44:33;;;;;;;13.23;6.50;;;23.80;47.90;;;;;;4911747;29;20477;-50
2023/10/13 07:46:59;;;;;;;6.10;5.33;;;23.90;47.80;;;;;;4911643;29;20449;-55
2023/10/13 07:49:43;;;;;;;7.50;4.47;;;23.60;47.80;;;;;;4919747;29;20465;-49
2023/10/13 07:54:49;;;;;;;8.27;5.00;;;23.30;47.80;;;;;;4916374;29;20507;-49
2023/10/13 07:57:15;;;;;;;8.17;5.60;;;23.40;48.00;;;;;;4914267;29;20437;-49
2023/10/13 07:59:53;;;;;;;6.63;4.70;;;23.60;47.60;;;;;;4911699;29;20488;-53
2023/10/13 08:02:48;;;;;;;8.90;5.00;;;23.70;46.50;;;;;;4913341;29;20243;-53
2023/10/13 08:05:24;;;;;;;8.70;5.13;;;23.90;46.60;;;;;;4911103;29;20457;-53
2023/10/13 08:07:50;;;;;;;5.63;4.73;;;24.10;45.80;;;;;;4908423;29;20468;-51
2023/10/13 08:10:16;;;;;;;8.70;5.03;;;24.30;45.30;;;;;;4906491;29;20434;-51
2023/10/13 08:12:44;;;;;;;6.33;5.03;;;24.50;44.90;;;;;;4908983;29;21031;-52
2023/10/13 08:15:21;;;;;;;8.27;4.87;;;24.70;44.90;;;;;;4916732;29;20448;-49
2023/10/13 08:17:47;;;;;;;8.70;4.70;;;24.80;45.00;;;;;;4916080;29;20467;-52
2023/10/13 08:20:16;;;;;;;4.93;4.40;;;24.90;43.80;;;;;;4912783;29;20889;-51
2023/10/13 08:22:47;;;;;;;6.37;4.17;;;24.70;43.80;;;;;;4912729;29;20862;-52
2023/10/13 08:25:20;;;;;;;7.30;4.50;;;24.80;44.30;;;;;;4911005;29;20529;-50
2023/10/13 08:28:04;;;;;;;8.70;4.53;;;25.00;43.30;;;;;;4912730;29;20413;-52
2023/10/13 08:30:30;;;;;;;8.20;4.83;;;25.10;42.20;;;;;;4909000;29;20460;-51
2023/10/13 08:32:58;;;;;;;6.40;4.37;;;25.30;41.30;;;;;;4913554;29;20875;-53
2023/10/13 08:35:54;;;;;;;7.80;4.50;;;25.40;40.70;;;;;;4911418;29;20445;-49
2023/10/13 08:38:17;;;;;;;14.07;4.90;;;25.40;40.00;;;;;;4917632;29;20449;-51
2023/10/13 08:43:23;;;;;;;8.53;4.77;;;25.70;40.10;;;;;;4911601;29;20485;-49
2023/10/13 08:48:17;;;;;;;12.57;6.13;;;26.10;39.60;;;;;;4916237;29;20516;-50
2023/10/13 08:53:34;;;;;;;25.70;8.27;;;26.30;42.10;;;;;;4914821;29;20479;-50
2023/10/13 08:56:17;;;;;;;7.97;4.63;;;26.20;40.60;;;;;;4911662;29;20540;-50
2023/10/13 09:06:47;;;;;;;9.37;4.80;;;26.10;37.20;;;;;;4911702;29;20484;-49
2023/10/13 09:12:09;;;;;;;7.73;4.97;;;26.50;37.80;;;;;;4907407;29;20845;-51
2023/10/13 09:14:43;;;;;;;8.43;5.07;;;26.70;37.40;;;;;;4916984;29;20520;-51
2023/10/13 09:17:12;;;;;;;6.50;4.30;;;27.00;37.60;;;;;;4916975;29;20472;-51
2023/10/13 09:19:48;;;;;;;12.33;4.33;;;27.20;35.80;;;;;;4918785;29;20492;-50
2023/10/13 09:22:27;;;;;;;8.00;4.13;;;27.30;35.30;;;;;;4917542;29;20416;-53
2023/10/13 09:25:00;;;;;;;10.90;4.23;;;27.60;35.00;;;;;;4909222;29;20516;-52
2023/10/13 09:27:32;;;;;;;6.30;3.80;;;27.90;33.20;;;;;;4919104;29;20449;-53
2023/10/13 09:30:22;;;;;;;8.13;3.90;;;28.00;32.10;;;;;;4919242;29;20460;-50
2023/10/13 09:33:04;;;;;;;5.30;3.70;;;28.20;32.40;;;;;;4921902;29;20983;-51
2023/10/13 09:35:33;;;;;;;11.00;4.33;;;28.40;31.80;;;;;;4913594;29;20433;-54
2023/10/13 09:38:02;;;;;;;12.43;4.10;;;28.50;30.90;;;;;;4912024;29;20512;-51
2023/10/13 09:42:57;;;;;;;10.57;4.33;;;28.70;30.70;;;;;;4918596;29;20477;-50
2023/10/13 09:45:36;;;;;;;6.30;3.80;;;28.90;31.50;;;;;;4902523;29;20453;-50
2023/10/13 09:48:16;;;;;;;8.13;3.30;;;29.30;31.10;;;;;;4917453;29;20541;-53
2023/10/13 09:50:44;;;;;;;10.70;3.80;;;29.40;31.10;;;;;;4919681;29;20551;-51
2023/10/13 09:53:13;;;;;;;8.20;3.87;;;29.50;30.40;;;;;;4916159;29;20476;-53
2023/10/13 09:55:44;;;;;;;5.77;3.43;;;29.70;30.40;;;;;;4914616;29;20451;-56
2023/10/13 09:58:17;;;;;;;8.27;3.77;;;29.60;30.20;;;;;;4915324;29;20496;-53
2023/10/13 10:00:58;;;;;;;7.73;4.47;;;29.40;30.10;;;;;;4915401;29;20463;-52
2023/10/13 10:03:30;;;;;;;8.60;4.13;;;29.50;30.70;;;;;;4926309;29;20448;-50
2023/10/13 10:06:06;;;;;;;5.87;4.10;;;29.60;30.60;;;;;;4920242;29;20449;-50
2023/10/13 10:08:33;;;;;;;7.87;4.23;;;29.60;30.20;;;;;;4915799;29;21092;-54
2023/10/13 10:11:17;;;;;;;4.03;3.20;;;29.50;30.50;;;;;;4914819;29;20433;-53
2023/10/13 10:14:24;;;;;;;8.60;4.70;;;29.60;30.30;;;;;;4915812;29;20983;-52
2023/10/13 10:16:59;;;;;;;13.43;4.40;;;29.90;30.50;;;;;;4913040;29;20460;-51
2023/10/13 10:19:27;;;;;;;5.10;4.50;;;30.10;30.20;;;;;;4918340;29;20483;-53
2023/10/13 10:22:27;;;;;;;5.87;3.70;;;30.10;30.00;;;;;;4922028;29;20433;-50
2023/10/13 10:25:01;;;;;;;4.63;3.70;;;30.10;30.00;;;;;;4915451;29;20449;-50
2023/10/13 10:27:31;;;;;;;5.33;3.80;;;30.30;29.70;;;;;;4912079;29;20424;-50
2023/10/13 10:29:57;;;;;;;8.17;3.57;;;30.50;29.20;;;;;;4914689;29;20452;-51
2023/10/13 10:32:40;;;;;;;5.20;3.83;;;30.60;29.00;;;;;;4915564;29;20524;-52
2023/10/13 10:35:09;;;;;;;6.60;3.50;;;30.90;29.20;;;;;;4920943;29;20480;-53
2023/10/13 10:37:36;;;;;;;6.80;3.70;;;31.00;28.90;;;;;;4922054;29;20813;-51
2023/10/13 10:40:07;;;;;;;15.67;4.63;;;31.20;29.10;;;;;;4914979;29;20437;-50
2023/10/13 10:42:34;;;;;;;5.00;3.70;;;31.30;28.80;;;;;;4914966;29;20510;-50
2023/10/13 10:45:05;;;;;;;8.47;3.60;;;31.30;28.80;;;;;;4911884;29;20769;-51
2023/10/13 10:47:31;;;;;;;8.50;4.30;;;31.30;29.00;;;;;;4912312;29;20433;-54
2023/10/13 10:50:07;;;;;;;6.30;3.40;;;31.50;28.70;;;;;;4917827;29;20520;-51
2023/10/13 10:52:37;;;;;;;7.00;4.17;;;31.40;28.00;;;;;;4921855;29;20662;-54
2023/10/13 10:55:07;;;;;;;4.13;3.57;;;31.40;28.50;;;;;;4922947;29;20444;-49
2023/10/13 10:57:37;;;;;;;6.13;3.20;;;31.60;28.80;;;;;;4923521;29;20469;-51
2023/10/13 11:00:37;;;;;;;9.83;4.03;;;31.80;28.30;;;;;;4916393;29;20418;-51
2023/10/13 11:02:56;;;;;;;7.33;3.73;;;32.00;28.00;;;;;;4914068;29;20425;-51
2023/10/13 11:05:24;;;;;;;6.63;3.67;;;32.00;28.00;;;;;;4914338;29;20426;-50
2023/10/13 11:07:51;;;;;;;6.57;3.50;;;32.10;27.30;;;;;;4913646;29;20437;-53
2023/10/13 11:10:30;;;;;;;5.33;4.03;;;31.90;26.80;;;;;;4918933;29;20509;-52
2023/10/13 11:13:13;;;;;;;7.60;3.43;;;31.90;26.50;;;;;;4910372;29;20487;-53
2023/10/13 11:15:45;;;;;;;7.07;3.53;;;31.90;26.50;;;;;;4903045;29;20477;-53
2023/10/13 11:18:20;;;;;;;10.60;3.13;;;31.90;26.70;;;;;;4914101;29;21128;-54
2023/10/13 11:20:49;;;;;;;5.90;3.50;;;32.10;26.70;;;;;;4924154;29;20443;-56
2023/10/13 11:23:15;;;;;;;9.57;3.10;;;31.80;26.10;;;;;;4917955;29;20445;-51
2023/10/13 11:25:44;;;;;;;4.13;3.60;;;31.90;26.40;;;;;;4920334;29;20452;-50
2023/10/13 11:28:27;;;;;;;6.40;3.43;;;31.80;26.30;;;;;;4917918;29;20645;-53
2023/10/13 11:30:58;;;;;;;6.10;4.10;;;31.80;26.10;;;;;;4907441;29;20453;-52
2023/10/13 11:33:28;;;;;;;11.03;3.30;;;31.60;26.60;;;;;;4913926;29;20841;-54
2023/10/13 11:35:55;;;;;;;11.13;4.27;;;31.60;26.50;;;;;;4907338;29;20449;-53
2023/10/13 11:38:29;;;;;;;14.03;4.60;;;31.40;26.40;;;;;;4917361;29;20476;-53
2023/10/13 11:46:14;;;;;;;4.67;3.40;;;31.20;26.10;;;;;;4912632;29;20492;-55
2023/10/13 11:48:41;;;;;;;8.80;4.13;;;31.20;26.30;;;;;;4917277;29;20865;-54
2023/10/13 11:51:09;;;;;;;11.33;4.30;;;31.20;26.10;;;;;;4913784;29;20432;-50
2023/10/13 11:53:35;;;;;;;10.77;4.07;;;31.00;26.00;;;;;;4916268;29;20484;-51
2023/10/13 11:56:10;;;;;;;9.77;4.07;;;30.90;26.40;;;;;;4913432;29;20500;-51
2023/10/13 11:58:40;;;;;;;9.53;3.20;;;31.00;26.00;;;;;;4913114;29;20465;-52
2023/10/13 12:06:46;;;;;;;8.70;3.80;;;30.90;26.30;;;;;;4918210;29;20560;-51
2023/10/13 12:11:54;;;;;;;7.07;3.70;;;31.00;26.00;;;;;;4914787;29;20468;-49
2023/10/13 12:14:52;;;;;;;6.87;3.30;;;31.00;26.20;;;;;;4914275;29;20483;-51
2023/10/13 12:17:31;;;;;;;4.90;3.77;;;31.00;26.30;;;;;;4914683;29;20477;-48
2023/10/13 12:20:10;;;;;;;10.13;4.00;;;31.00;26.00;;;;;;4909619;29;20551;-55
2023/10/13 12:22:38;;;;;;;7.57;3.50;;;31.00;25.70;;;;;;4907705;29;20452;-54
2023/10/13 12:25:18;;;;;;;6.60;3.30;;;30.90;26.00;;;;;;4915694;29;20489;-49
2023/10/13 12:27:50;;;;;;;5.80;3.40;;;31.10;25.90;;;;;;4913559;29;20447;-50
2023/10/13 12:30:22;;;;;;;8.50;3.60;;;31.30;25.90;;;;;;4906779;29;20460;-48
2023/10/13 12:32:58;;;;;;;8.50;3.60;;;31.50;25.80;;;;;;4913862;29;20480;-51
2023/10/13 12:35:34;;;;;;;7.87;3.77;;;31.80;25.90;;;;;;4916594;29;20515;-49
2023/10/13 12:38:16;;;;;;;8.03;4.00;;;31.90;25.30;;;;;;4909243;29;20556;-55
2023/10/13 12:49:38;;;;;;;13.93;3.60;;;31.80;25.10;;;;;;4904653;29;21011;-53
2023/10/13 12:51:51;;;;;;;6.23;3.20;;;31.80;25.30;;;;;;4903057;29;20537;-51
2023/10/13 12:54:23;;;;;;;9.10;3.40;;;31.90;25.20;;;;;;4905678;29;20426;-49
2023/10/13 12:56:50;;;;;;;8.60;3.53;;;31.90;25.20;;;;;;4908351;29;20200;-51
2023/10/13 12:59:17;;;;;;;3.70;3.17;;;32.00;25.30;;;;;;4904883;29;20465;-52
2023/10/13 13:01:42;;;;;;;14.10;3.87;;;32.10;25.10;;;;;;4913220;29;20910;-51
2023/10/13 13:04:18;;;;;;;5.80;4.00;;;32.40;25.00;;;;;;4907615;29;20510;-52
2023/10/13 13:06:44;;;;;;;9.80;3.60;;;32.60;25.00;;;;;;4907808;29;20201;-57
2023/10/13 13:09:09;;;;;;;7.10;3.33;;;32.70;24.80;;;;;;4914449;29;21116;-55
2023/10/13 13:11:41;;;;;;;5.13;3.53;;;33.00;24.70;;;;;;4905996;29;20205;-54
2023/10/13 13:14:08;;;;;;;5.53;3.53;;;33.00;24.30;;;;;;4899906;29;20256;-51
2023/10/13 13:16:34;;;;;;;8.10;4.10;;;33.00;24.60;;;;;;4911309;29;20469;-53
2023/10/13 13:19:09;;;;;;;5.07;3.90;;;33.10;24.30;;;;;;4905401;29;20839;-51
2023/10/13 13:21:38;;;;;;;4.20;3.80;;;33.10;24.80;;;;;;4906091;29;20609;-50
2023/10/13 13:24:10;;;;;;;7.27;3.87;;;33.00;24.20;;;;;;4908896;29;20824;-52
2023/10/13 13:26:41;;;;;;;8.93;3.90;;;32.70;24.50;;;;;;4907502;29;20445;-52
2023/10/13 13:29:10;;;;;;;8.70;3.47;;;32.70;24.70;;;;;;4918424;29;20789;-52
2023/10/13 13:31:41;;;;;;;8.80;4.00;;;32.90;24.70;;;;;;4911197;29;20473;-54
2023/10/13 13:34:09;;;;;;;6.40;3.57;;;33.00;24.50;;;;;;4913567;29;20452;-53
2023/10/13 13:36:35;;;;;;;7.10;4.13;;;33.00;24.30;;;;;;4917587;29;20912;-53
2023/10/13 13:39:01;;;;;;;12.93;4.93;;;33.30;24.40;;;;;;4913916;29;20534;-53
2023/10/13 13:41:27;;;;;;;6.90;3.40;;;33.30;24.10;;;;;;4911095;29;20512;-50
2023/10/13 13:43:56;;;;;;;4.00;3.60;;;33.40;24.20;;;;;;4914217;29;20295;-50
2023/10/13 13:46:41;;;;;;;8.57;3.77;;;33.50;24.10;;;;;;4911397;29;20219;-51
2023/10/13 13:49:08;;;;;;;4.87;3.60;;;33.50;23.90;;;;;;4911626;29;20471;-52
2023/10/13 13:51:37;;;;;;;4.60;3.33;;;33.50;23.90;;;;;;4918249;29;20516;-50
2023/10/13 13:54:06;;;;;;;5.00;3.00;;;33.50;23.10;;;;;;4923278;29;20476;-48
2023/10/13 13:56:38;;;;;;;8.50;4.00;;;33.30;22.70;;;;;;4916449;29;20457;-48
2023/10/13 13:59:08;;;;;;;5.60;3.50;;;33.00;22.40;;;;;;4918991;29;20476;-53
2023/10/13 14:01:35;;;;;;;5.97;3.80;;;32.90;22.40;;;;;;4917670;29;20572;-52
2023/10/13 14:04:03;;;;;;;3.60;2.97;;;32.70;22.40;;;;;;4918124;29;21142;-50
2023/10/13 14:06:29;;;;;;;5.83;3.10;;;32.70;22.40;;;;;;4911528;29;20485;-51
2023/10/13 14:08:59;;;;;;;5.10;3.30;;;32.50;22.80;;;;;;4914570;29;20501;-48
2023/10/13 14:16:53;;;;;;;3.77;2.97;;;32.50;23.00;;;;;;4914743;29;21357;-53
2023/10/13 14:19:26;;;;;;;7.47;3.90;;;32.50;22.80;;;;;;4907567;29;20449;-52
2023/10/13 14:22:06;;;;;;;6.60;3.90;;;32.30;22.90;;;;;;4911452;29;21075;-50
2023/10/13 14:24:43;;;;;;;5.23;3.40;;;32.50;23.00;;;;;;4913584;29;20469;-52
2023/10/13 14:27:10;;;;;;;7.53;3.10;;;32.50;23.10;;;;;;4911191;29;20418;-53
2023/10/13 14:29:45;;;;;;;3.73;3.07;;;32.50;22.90;;;;;;4919324;29;20512;-48
2023/10/13 14:32:13;;;;;;;3.10;2.73;;;32.50;23.00;;;;;;4911422;29;20472;-50
2023/10/13 14:34:40;;;;;;;7.23;3.17;;;32.40;23.00;;;;;;4911666;29;20452;-51
2023/10/13 14:37:06;;;;;;;4.60;3.50;;;32.60;22.90;;;;;;4911082;29;20444;-50
2023/10/13 14:39:34;;;;;;;4.10;3.30;;;32.60;23.10;;;;;;4911287;29;20457;-51
2023/10/13 14:42:05;;;;;;;7.17;3.07;;;32.80;23.00;;;;;;4913407;29;20454;-50
2023/10/13 14:44:31;;;;;;;6.50;3.13;;;32.80;22.80;;;;;;4923306;29;20424;-51
2023/10/13 14:46:57;;;;;;;5.47;3.07;;;32.70;22.90;;;;;;4916969;29;21029;-54
2023/10/13 14:49:23;;;;;;;5.70;3.07;;;32.70;23.30;;;;;;4914564;29;20448;-50
2023/10/13 14:51:49;;;;;;;9.00;3.17;;;32.90;23.10;;;;;;4914503;29;20558;-52
2023/10/13 14:54:15;;;;;;;6.57;2.83;;;32.80;23.00;;;;;;4914676;29;20185;-51
2023/10/13 14:56:43;;;;;;;5.43;2.93;;;32.70;22.80;;;;;;4922374;29;20471;-49
2023/10/13 14:59:16;;;;;;;8.93;2.63;;;32.70;23.00;;;;;;4922906;29;20762;-55
2023/10/13 15:01:42;;;;;;;5.40;3.27;;;32.50;22.60;;;;;;4923146;29;20502;-49
2023/10/13 15:04:08;;;;;;;4.00;3.60;;;32.60;22.90;;;;;;4921882;29;20948;-49
2023/10/13 15:06:33;;;;;;;4.00;3.30;;;32.80;23.00;;;;;;4914074;29;20557;-51
2023/10/13 15:09:00;;;;;;;3.87;2.63;;;32.70;22.50;;;;;;4911793;29;20216;-49
2023/10/13 15:11:27;;;;;;;7.80;3.30;;;32.40;22.70;;;;;;4920192;29;20196;-52
2023/10/13 15:13:53;;;;;;;5.83;3.20;;;32.40;22.60;;;;;;4916754;29;20480;-50
2023/10/13 15:16:24;;;;;;;4.80;3.27;;;32.40;22.80;;;;;;4908785;29;21016;-51
2023/10/13 15:18:54;;;;;;;4.10;2.90;;;32.20;22.80;;;;;;4910808;29;20472;-54
2023/10/13 15:21:26;;;;;;;5.20;2.40;;;32.10;22.20;;;;;;4910506;29;20448;-50
2023/10/13 15:23:52;;;;;;;6.03;3.50;;;31.80;22.00;;;;;;4909520;29;20437;-56
2023/10/13 15:26:23;;;;;;;3.40;2.67;;;31.80;22.50;;;;;;4906239;29;20520;-55
2023/10/13 15:28:49;;;;;;;3.60;3.20;;;31.90;22.30;;;;;;4910008;29;20212;-50
2023/10/13 15:31:37;;;;;;;5.90;2.87;;;32.10;22.00;;;;;;4903674;29;20453;-51
2023/10/13 15:34:06;;;;;;;3.23;2.93;;;32.00;21.70;;;;;;4902786;29;20823;-48
2023/10/13 15:36:33;;;;;;;4.20;2.80;;;32.00;21.70;;;;;;4904722;29;20456;-52
2023/10/13 15:38:58;;;;;;;3.87;3.17;;;32.10;21.80;;;;;;4902964;29;20485;-47
2023/10/13 15:41:25;;;;;;;2.97;2.70;;;32.00;21.80;;;;;;4908932;29;20456;-50
2023/10/13 15:43:52;;;;;;;7.00;2.83;;;32.10;22.10;;;;;;4911060;29;20193;-50
2023/10/13 15:46:20;;;;;;;2.67;2.47;;;32.00;21.90;;;;;;4909020;29;20457;-48
2023/10/13 15:48:50;;;;;;;3.67;2.40;;;32.20;21.90;;;;;;4909662;29;21019;-52
2023/10/13 15:51:16;;;;;;;7.00;2.80;;;32.20;21.90;;;;;;4908900;29;20507;-47
2023/10/13 15:53:43;;;;;;;3.73;2.57;;;32.00;21.70;;;;;;4907361;29;20992;-50
2023/10/13 15:56:11;;;;;;;5.43;2.43;;;31.90;22.00;;;;;;4899637;29;20233;-47
2023/10/13 15:58:39;;;;;;;7.70;2.97;;;31.90;21.80;;;;;;4902258;29;21035;-52
2023/10/13 16:01:07;;;;;;;3.53;2.70;;;31.70;22.10;;;;;;4907632;29;20441;-47
2023/10/13 16:03:33;;;;;;;5.00;2.50;;;31.60;22.10;;;;;;4911811;29;20463;-47
2023/10/13 16:06:04;;;;;;;4.97;2.80;;;31.60;22.10;;;;;;4907714;29;20973;-47
2023/10/13 16:08:31;;;;;;;3.20;2.40;;;31.50;21.80;;;;;;4911324;29;20516;-48
2023/10/13 16:11:07;;;;;;;4.80;2.80;;;31.50;22.10;;;;;;4913553;29;20480;-50